首页
METAR-TAF:

METAR-TAF

机场 :

贝娜齐尔·布托国际机场

伊斯兰堡, 巴基斯坦

纬度: 33-37N, 经度: 073-06E, 海拔: 507米

当前天气观测

该预报发布于32分钟前的10:30 UTC
风速6节,风向西南
温度 21°C
湿度 43%
气压 1019 hPa
能見度: 7000
少量云层高于4000英尺
多云层高于24000英尺

METAR: OPRN 151030Z 23006KT 7000 FEW040 BKN240 21/08 Q1019 NOSIG RMK A3009

时间: 16:02 (11:02 UTC)

预报

该预报发布于7小时和32分钟前的03:30 UTC
预报有效从15日的 06点(UTC)到 16日的 12点(UTC)
风速10节,风向西转西南
能见度10公里或以上
1500米以下无云,无积雨云
短暂存在
从 15日的 12点(UTC)到 15日的 15点(UTC)
能見度: 4000
短暂存在
从 16日的 00点(UTC)到 16日的 04点(UTC)
能見度: 3000
轻雾

TAF: OPRN 150330Z 1506/1612 25010KT CAVOK TEMPO 1512/1515 4000 HZ NSC TEMPO 1600/1604 3000 BR NSC

超过4000个机场的气象观测和天气预报(METAR&TAF报告)。

可查询的气象台以黄色和红色小点在地图上表示。

将鼠标移到小点上方,可查看气象台名称。

然后点击查看天气观测和预报。

如需切换地图:点击带黑十字的绿色按钮放大地图;点击带横线的绿色按钮缩小地图;或者点击绿色箭头查看邻近地区的地图。


METAR-TAF: